sensor_id;sensor_type;location;lat;lon;timestamp;temperature;humidity
8043;DHT22;4064;48.132;11.366;2023-10-31T00:01:50;9.60;99.90
8043;DHT22;4064;48.132;11.366;2023-10-31T00:04:16;9.60;99.90
8043;DHT22;4064;48.132;11.366;2023-10-31T00:06:42;9.50;99.90
8043;DHT22;4064;48.132;11.366;2023-10-31T00:09:08;9.50;99.90
8043;DHT22;4064;48.132;11.366;2023-10-31T00:11:36;9.40;99.90
8043;DHT22;4064;48.132;11.366;2023-10-31T00:14:01;9.40;99.90
8043;DHT22;4064;48.132;11.366;2023-10-31T00:16:27;9.30;99.90
8043;DHT22;4064;48.132;11.366;2023-10-31T00:18:53;9.30;99.90
8043;DHT22;4064;48.132;11.366;2023-10-31T00:21:19;9.30;99.90
8043;DHT22;4064;48.132;11.366;2023-10-31T00:23:48;9.20;99.90
8043;DHT22;4064;48.132;11.366;2023-10-31T00:26:15;9.20;99.90
8043;DHT22;4064;48.132;11.366;2023-10-31T00:28:40;9.20;99.90
8043;DHT22;4064;48.132;11.366;2023-10-31T00:31:07;9.20;99.90
8043;DHT22;4064;48.132;11.366;2023-10-31T00:33:37;9.20;99.90
8043;DHT22;4064;48.132;11.366;2023-10-31T00:36:02;9.10;99.90
8043;DHT22;4064;48.132;11.366;2023-10-31T00:38:28;9.20;99.90
8043;DHT22;4064;48.132;11.366;2023-10-31T00:40:54;9.10;99.90
8043;DHT22;4064;48.132;11.366;2023-10-31T00:43:19;9.10;99.90
8043;DHT22;4064;48.132;11.366;2023-10-31T00:45:45;9.10;99.90
8043;DHT22;4064;48.132;11.366;2023-10-31T00:48:10;9.20;99.90
8043;DHT22;4064;48.132;11.366;2023-10-31T00:50:36;9.10;99.90
8043;DHT22;4064;48.132;11.366;2023-10-31T00:53:02;9.10;99.90
8043;DHT22;4064;48.132;11.366;2023-10-31T00:55:27;9.10;99.90
8043;DHT22;4064;48.132;11.366;2023-10-31T00:57:53;9.10;99.90
8043;DHT22;4064;48.132;11.366;2023-10-31T01:00:18;9.10;99.90
8043;DHT22;4064;48.132;11.366;2023-10-31T01:02:44;9.10;99.90
8043;DHT22;4064;48.132;11.366;2023-10-31T01:05:10;9.10;99.90
8043;DHT22;4064;48.132;11.366;2023-10-31T01:07:36;9.10;99.90
8043;DHT22;4064;48.132;11.366;2023-10-31T01:10:03;9.00;99.90
8043;DHT22;4064;48.132;11.366;2023-10-31T01:12:28;9.10;99.90
8043;DHT22;4064;48.132;11.366;2023-10-31T01:14:55;9.10;99.90
8043;DHT22;4064;48.132;11.366;2023-10-31T01:17:21;9.00;99.90
8043;DHT22;4064;48.132;11.366;2023-10-31T01:19:47;9.00;99.90
8043;DHT22;4064;48.132;11.366;2023-10-31T01:22:13;9.00;99.90
8043;DHT22;4064;48.132;11.366;2023-10-31T01:24:38;9.00;99.90
8043;DHT22;4064;48.132;11.366;2023-10-31T01:27:04;9.10;99.90
8043;DHT22;4064;48.132;11.366;2023-10-31T01:29:30;9.00;99.90
8043;DHT22;4064;48.132;11.366;2023-10-31T01:31:56;9.10;99.90
8043;DHT22;4064;48.132;11.366;2023-10-31T01:34:22;9.00;99.90
8043;DHT22;4064;48.132;11.366;2023-10-31T01:36:47;9.10;99.90
8043;DHT22;4064;48.132;11.366;2023-10-31T01:39:13;9.10;99.90
8043;DHT22;4064;48.132;11.366;2023-10-31T01:41:41;9.10;99.90
8043;DHT22;4064;48.132;11.366;2023-10-31T01:44:08;9.10;99.90
8043;DHT22;4064;48.132;11.366;2023-10-31T01:46:33;9.10;99.90
8043;DHT22;4064;48.132;11.366;2023-10-31T01:48:59;9.10;99.90
8043;DHT22;4064;48.132;11.366;2023-10-31T01:51:26;9.10;99.90
8043;DHT22;4064;48.132;11.366;2023-10-31T01:53:52;9.10;99.90
8043;DHT22;4064;48.132;11.366;2023-10-31T01:56:19;9.10;99.90
8043;DHT22;4064;48.132;11.366;2023-10-31T01:58:48;9.10;99.90
8043;DHT22;4064;48.132;11.366;2023-10-31T02:01:14;9.10;99.90
8043;DHT22;4064;48.132;11.366;2023-10-31T02:03:40;9.10;99.90
8043;DHT22;4064;48.132;11.366;2023-10-31T02:06:05;9.10;99.90
8043;DHT22;4064;48.132;11.366;2023-10-31T02:08:31;9.10;99.90
8043;DHT22;4064;48.132;11.366;2023-10-31T02:10:57;9.10;99.90
8043;DHT22;4064;48.132;11.366;2023-10-31T02:13:23;9.00;99.90
8043;DHT22;4064;48.132;11.366;2023-10-31T02:15:48;9.00;99.90
8043;DHT22;4064;48.132;11.366;2023-10-31T02:18:14;9.00;99.90
8043;DHT22;4064;48.132;11.366;2023-10-31T02:20:40;8.90;99.90
8043;DHT22;4064;48.132;11.366;2023-10-31T02:23:06;8.90;99.90
8043;DHT22;4064;48.132;11.366;2023-10-31T02:25:31;8.90;99.90
8043;DHT22;4064;48.132;11.366;2023-10-31T02:27:57;8.90;99.90
8043;DHT22;4064;48.132;11.366;2023-10-31T02:30:24;8.90;99.90
8043;DHT22;4064;48.132;11.366;2023-10-31T02:32:50;8.80;99.90
8043;DHT22;4064;48.132;11.366;2023-10-31T02:35:19;8.90;99.90
8043;DHT22;4064;48.132;11.366;2023-10-31T02:37:48;8.80;99.90
8043;DHT22;4064;48.132;11.366;2023-10-31T02:40:14;8.80;99.90
8043;DHT22;4064;48.132;11.366;2023-10-31T02:42:40;8.80;99.90
8043;DHT22;4064;48.132;11.366;2023-10-31T02:45:06;8.80;99.90
8043;DHT22;4064;48.132;11.366;2023-10-31T02:47:31;8.80;99.90
8043;DHT22;4064;48.132;11.366;2023-10-31T02:49:57;8.80;99.90
8043;DHT22;4064;48.132;11.366;2023-10-31T02:52:23;8.80;99.90
8043;DHT22;4064;48.132;11.366;2023-10-31T02:54:48;8.80;99.90
8043;DHT22;4064;48.132;11.366;2023-10-31T02:57:15;8.80;99.90
8043;DHT22;4064;48.132;11.366;2023-10-31T02:59:41;8.70;99.90
8043;DHT22;4064;48.132;11.366;2023-10-31T03:02:07;8.70;99.90
8043;DHT22;4064;48.132;11.366;2023-10-31T03:04:32;8.80;99.90
8043;DHT22;4064;48.132;11.366;2023-10-31T03:06:58;8.70;99.90
8043;DHT22;4064;48.132;11.366;2023-10-31T03:09:24;8.70;99.90
8043;DHT22;4064;48.132;11.366;2023-10-31T03:11:49;8.70;99.90
8043;DHT22;4064;48.132;11.366;2023-10-31T03:14:15;8.70;99.90
8043;DHT22;4064;48.132;11.366;2023-10-31T03:16:40;8.60;99.90
8043;DHT22;4064;48.132;11.366;2023-10-31T03:19:07;8.70;99.90
8043;DHT22;4064;48.132;11.366;2023-10-31T03:21:33;8.70;99.90
8043;DHT22;4064;48.132;11.366;2023-10-31T03:23:58;8.70;99.90
8043;DHT22;4064;48.132;11.366;2023-10-31T03:26:24;8.70;99.90
8043;DHT22;4064;48.132;11.366;2023-10-31T03:28:50;8.70;99.90
8043;DHT22;4064;48.132;11.366;2023-10-31T03:31:16;8.70;99.90
8043;DHT22;4064;48.132;11.366;2023-10-31T03:33:41;8.70;99.90
8043;DHT22;4064;48.132;11.366;2023-10-31T03:36:08;8.70;99.90
8043;DHT22;4064;48.132;11.366;2023-10-31T03:38:37;8.60;99.90
8043;DHT22;4064;48.132;11.366;2023-10-31T03:41:03;8.60;99.90
8043;DHT22;4064;48.132;11.366;2023-10-31T03:43:28;8.60;99.90
8043;DHT22;4064;48.132;11.366;2023-10-31T03:45:54;8.60;99.90
8043;DHT22;4064;48.132;11.366;2023-10-31T03:48:20;8.60;99.90
8043;DHT22;4064;48.132;11.366;2023-10-31T03:50:46;8.60;99.90
8043;DHT22;4064;48.132;11.366;2023-10-31T03:53:12;8.60;99.90
8043;DHT22;4064;48.132;11.366;2023-10-31T03:55:38;8.70;99.90
8043;DHT22;4064;48.132;11.366;2023-10-31T03:58:04;8.70;99.90
8043;DHT22;4064;48.132;11.366;2023-10-31T04:00:29;8.70;99.90
8043;DHT22;4064;48.132;11.366;2023-10-31T04:02:55;8.70;99.90
8043;DHT22;4064;48.132;11.366;2023-10-31T04:05:21;8.70;99.90
8043;DHT22;4064;48.132;11.366;2023-10-31T04:07:48;8.80;99.90
8043;DHT22;4064;48.132;11.366;2023-10-31T04:10:14;8.70;99.90
8043;DHT22;4064;48.132;11.366;2023-10-31T04:12:41;8.80;99.90
8043;DHT22;4064;48.132;11.366;2023-10-31T04:15:07;8.80;99.90
8043;DHT22;4064;48.132;11.366;2023-10-31T04:17:33;8.80;99.90
8043;DHT22;4064;48.132;11.366;2023-10-31T04:19:59;8.70;99.90
8043;DHT22;4064;48.132;11.366;2023-10-31T04:22:24;8.70;99.90
8043;DHT22;4064;48.132;11.366;2023-10-31T04:24:50;8.70;99.90
8043;DHT22;4064;48.132;11.366;2023-10-31T04:27:16;8.70;99.90
8043;DHT22;4064;48.132;11.366;2023-10-31T04:29:41;8.60;99.90
8043;DHT22;4064;48.132;11.366;2023-10-31T04:32:07;8.60;99.90
8043;DHT22;4064;48.132;11.366;2023-10-31T04:34:33;8.60;99.90
8043;DHT22;4064;48.132;11.366;2023-10-31T04:36:58;8.60;99.90
8043;DHT22;4064;48.132;11.366;2023-10-31T04:39:24;8.70;99.90
8043;DHT22;4064;48.132;11.366;2023-10-31T04:41:50;8.60;99.90
8043;DHT22;4064;48.132;11.366;2023-10-31T04:44:15;8.60;99.90
8043;DHT22;4064;48.132;11.366;2023-10-31T04:46:42;8.60;99.90
8043;DHT22;4064;48.132;11.366;2023-10-31T04:49:20;8.60;99.90
8043;DHT22;4064;48.132;11.366;2023-10-31T04:51:46;8.60;99.90
8043;DHT22;4064;48.132;11.366;2023-10-31T04:54:12;8.60;99.90
8043;DHT22;4064;48.132;11.366;2023-10-31T04:56:37;8.60;99.90
8043;DHT22;4064;48.132;11.366;2023-10-31T04:59:03;8.60;99.90
8043;DHT22;4064;48.132;11.366;2023-10-31T05:01:29;8.60;99.90
8043;DHT22;4064;48.132;11.366;2023-10-31T05:03:54;8.60;99.90
8043;DHT22;4064;48.132;11.366;2023-10-31T05:06:20;8.60;99.90
8043;DHT22;4064;48.132;11.366;2023-10-31T05:08:47;8.70;99.90
8043;DHT22;4064;48.132;11.366;2023-10-31T05:11:13;8.70;99.90
8043;DHT22;4064;48.132;11.366;2023-10-31T05:13:39;8.70;99.90
8043;DHT22;4064;48.132;11.366;2023-10-31T05:16:05;8.70;99.90
8043;DHT22;4064;48.132;11.366;2023-10-31T05:18:31;8.70;99.90
8043;DHT22;4064;48.132;11.366;2023-10-31T05:20:57;8.70;99.90
8043;DHT22;4064;48.132;11.366;2023-10-31T05:23:22;8.70;99.90
8043;DHT22;4064;48.132;11.366;2023-10-31T05:25:48;8.80;99.90
8043;DHT22;4064;48.132;11.366;2023-10-31T05:28:14;8.70;99.90
8043;DHT22;4064;48.132;11.366;2023-10-31T05:30:39;8.70;99.90
8043;DHT22;4064;48.132;11.366;2023-10-31T05:33:05;8.60;99.90
8043;DHT22;4064;48.132;11.366;2023-10-31T05:35:32;8.70;99.90
8043;DHT22;4064;48.132;11.366;2023-10-31T05:37:58;8.70;99.90
8043;DHT22;4064;48.132;11.366;2023-10-31T05:40:24;8.70;99.90
8043;DHT22;4064;48.132;11.366;2023-10-31T05:42:51;8.70;99.90
8043;DHT22;4064;48.132;11.366;2023-10-31T05:45:17;8.70;99.90
8043;DHT22;4064;48.132;11.366;2023-10-31T05:47:43;8.70;99.90
8043;DHT22;4064;48.132;11.366;2023-10-31T05:50:09;8.70;99.90
8043;DHT22;4064;48.132;11.366;2023-10-31T05:52:34;8.80;99.90
8043;DHT22;4064;48.132;11.366;2023-10-31T05:55:01;8.80;99.90
8043;DHT22;4064;48.132;11.366;2023-10-31T05:57:27;8.80;99.90
8043;DHT22;4064;48.132;11.366;2023-10-31T05:59:53;8.70;99.90
8043;DHT22;4064;48.132;11.366;2023-10-31T06:02:19;8.70;99.90
8043;DHT22;4064;48.132;11.366;2023-10-31T06:04:44;8.80;99.90
8043;DHT22;4064;48.132;11.366;2023-10-31T06:07:11;8.80;99.90
8043;DHT22;4064;48.132;11.366;2023-10-31T06:09:37;8.80;99.90
8043;DHT22;4064;48.132;11.366;2023-10-31T06:12:03;8.80;99.90
8043;DHT22;4064;48.132;11.366;2023-10-31T06:14:30;8.80;99.90
8043;DHT22;4064;48.132;11.366;2023-10-31T06:16:56;8.80;99.90
8043;DHT22;4064;48.132;11.366;2023-10-31T06:19:24;8.80;99.90
8043;DHT22;4064;48.132;11.366;2023-10-31T06:21:50;8.80;99.90
8043;DHT22;4064;48.132;11.366;2023-10-31T06:24:16;8.80;99.90
8043;DHT22;4064;48.132;11.366;2023-10-31T06:26:41;8.80;99.90
8043;DHT22;4064;48.132;11.366;2023-10-31T06:29:07;8.80;99.90
8043;DHT22;4064;48.132;11.366;2023-10-31T06:31:36;8.80;99.90
8043;DHT22;4064;48.132;11.366;2023-10-31T06:34:02;8.80;99.90
8043;DHT22;4064;48.132;11.366;2023-10-31T06:36:28;8.80;99.90
8043;DHT22;4064;48.132;11.366;2023-10-31T06:38:54;8.80;99.90
8043;DHT22;4064;48.132;11.366;2023-10-31T06:41:19;8.90;99.90
8043;DHT22;4064;48.132;11.366;2023-10-31T06:43:45;8.90;99.90
8043;DHT22;4064;48.132;11.366;2023-10-31T06:46:11;8.90;99.90
8043;DHT22;4064;48.132;11.366;2023-10-31T06:48:36;8.90;99.90
8043;DHT22;4064;48.132;11.366;2023-10-31T06:51:02;8.90;99.90
8043;DHT22;4064;48.132;11.366;2023-10-31T06:53:28;8.80;99.90
8043;DHT22;4064;48.132;11.366;2023-10-31T06:55:53;8.90;99.90
8043;DHT22;4064;48.132;11.366;2023-10-31T06:58:19;8.90;99.90
8043;DHT22;4064;48.132;11.366;2023-10-31T07:00:45;8.90;99.90
8043;DHT22;4064;48.132;11.366;2023-10-31T07:03:10;8.80;99.90
8043;DHT22;4064;48.132;11.366;2023-10-31T07:05:40;8.90;99.90
8043;DHT22;4064;48.132;11.366;2023-10-31T07:08:06;8.90;99.90
8043;DHT22;4064;48.132;11.366;2023-10-31T07:10:32;8.80;99.90
8043;DHT22;4064;48.132;11.366;2023-10-31T07:12:59;8.90;99.90
8043;DHT22;4064;48.132;11.366;2023-10-31T07:15:27;8.80;99.90
8043;DHT22;4064;48.132;11.366;2023-10-31T07:17:53;8.80;99.90
8043;DHT22;4064;48.132;11.366;2023-10-31T07:20:19;8.80;99.90
8043;DHT22;4064;48.132;11.366;2023-10-31T07:22:44;8.90;99.90
8043;DHT22;4064;48.132;11.366;2023-10-31T07:25:10;8.90;99.90
8043;DHT22;4064;48.132;11.366;2023-10-31T07:27:36;8.80;99.90
8043;DHT22;4064;48.132;11.366;2023-10-31T07:30:05;8.80;99.90
8043;DHT22;4064;48.132;11.366;2023-10-31T07:32:31;8.90;99.90
8043;DHT22;4064;48.132;11.366;2023-10-31T07:34:57;8.90;99.90
8043;DHT22;4064;48.132;11.366;2023-10-31T07:37:23;8.90;99.90
8043;DHT22;4064;48.132;11.366;2023-10-31T07:39:49;9.00;99.90
8043;DHT22;4064;48.132;11.366;2023-10-31T07:42:16;9.00;99.90
8043;DHT22;4064;48.132;11.366;2023-10-31T07:44:42;9.00;99.90
8043;DHT22;4064;48.132;11.366;2023-10-31T07:47:08;9.00;99.90
8043;DHT22;4064;48.132;11.366;2023-10-31T07:49:33;9.10;99.90
8043;DHT22;4064;48.132;11.366;2023-10-31T07:51:59;9.10;99.90
8043;DHT22;4064;48.132;11.366;2023-10-31T07:54:25;9.10;99.90
8043;DHT22;4064;48.132;11.366;2023-10-31T07:56:50;9.10;99.90
8043;DHT22;4064;48.132;11.366;2023-10-31T07:59:16;9.10;99.90
8043;DHT22;4064;48.132;11.366;2023-10-31T08:01:42;9.10;99.90
8043;DHT22;4064;48.132;11.366;2023-10-31T08:04:07;9.10;99.90
8043;DHT22;4064;48.132;11.366;2023-10-31T08:06:33;9.00;99.90
8043;DHT22;4064;48.132;11.366;2023-10-31T08:08:59;9.00;99.90
8043;DHT22;4064;48.132;11.366;2023-10-31T08:11:25;9.00;99.90
8043;DHT22;4064;48.132;11.366;2023-10-31T08:13:53;9.00;99.90
8043;DHT22;4064;48.132;11.366;2023-10-31T08:16:19;9.00;99.90
8043;DHT22;4064;48.132;11.366;2023-10-31T08:18:45;9.00;99.90
8043;DHT22;4064;48.132;11.366;2023-10-31T08:21:12;9.00;99.90
8043;DHT22;4064;48.132;11.366;2023-10-31T08:23:38;9.00;99.90
8043;DHT22;4064;48.132;11.366;2023-10-31T08:26:04;9.10;99.90
8043;DHT22;4064;48.132;11.366;2023-10-31T08:28:30;9.10;99.90
8043;DHT22;4064;48.132;11.366;2023-10-31T08:30:56;9.10;99.90
8043;DHT22;4064;48.132;11.366;2023-10-31T08:33:22;9.10;99.90
8043;DHT22;4064;48.132;11.366;2023-10-31T08:35:48;9.20;99.90
8043;DHT22;4064;48.132;11.366;2023-10-31T08:38:14;9.20;99.90
8043;DHT22;4064;48.132;11.366;2023-10-31T08:40:40;9.30;99.90
8043;DHT22;4064;48.132;11.366;2023-10-31T08:43:06;9.20;99.90
8043;DHT22;4064;48.132;11.366;2023-10-31T08:45:33;9.20;99.90
8043;DHT22;4064;48.132;11.366;2023-10-31T08:47:59;9.20;99.90
8043;DHT22;4064;48.132;11.366;2023-10-31T08:50:25;9.20;99.90
8043;DHT22;4064;48.132;11.366;2023-10-31T08:52:51;9.20;99.90
8043;DHT22;4064;48.132;11.366;2023-10-31T08:55:17;9.20;99.90
8043;DHT22;4064;48.132;11.366;2023-10-31T08:57:43;9.30;99.90
8043;DHT22;4064;48.132;11.366;2023-10-31T09:00:09;9.30;99.90
8043;DHT22;4064;48.132;11.366;2023-10-31T09:02:35;9.40;99.90
8043;DHT22;4064;48.132;11.366;2023-10-31T09:05:00;9.40;99.90
8043;DHT22;4064;48.132;11.366;2023-10-31T09:07:26;9.40;99.90
8043;DHT22;4064;48.132;11.366;2023-10-31T09:09:52;9.40;99.90
8043;DHT22;4064;48.132;11.366;2023-10-31T09:12:18;9.40;99.90
8043;DHT22;4064;48.132;11.366;2023-10-31T09:14:44;9.50;99.90
8043;DHT22;4064;48.132;11.366;2023-10-31T09:17:09;9.50;99.90
8043;DHT22;4064;48.132;11.366;2023-10-31T09:19:35;9.50;99.90
8043;DHT22;4064;48.132;11.366;2023-10-31T09:22:01;9.50;99.90
8043;DHT22;4064;48.132;11.366;2023-10-31T09:24:26;9.50;99.90
8043;DHT22;4064;48.132;11.366;2023-10-31T09:26:52;9.50;99.90
8043;DHT22;4064;48.132;11.366;2023-10-31T09:29:18;9.50;99.90
8043;DHT22;4064;48.132;11.366;2023-10-31T09:31:43;9.50;99.90
8043;DHT22;4064;48.132;11.366;2023-10-31T09:34:09;9.60;99.90
8043;DHT22;4064;48.132;11.366;2023-10-31T09:36:35;9.60;99.90
8043;DHT22;4064;48.132;11.366;2023-10-31T09:39:01;9.60;99.90
8043;DHT22;4064;48.132;11.366;2023-10-31T09:41:27;9.60;99.90
8043;DHT22;4064;48.132;11.366;2023-10-31T09:43:53;9.60;99.90
8043;DHT22;4064;48.132;11.366;2023-10-31T09:46:21;9.60;99.90
8043;DHT22;4064;48.132;11.366;2023-10-31T09:48:47;9.70;99.90
8043;DHT22;4064;48.132;11.366;2023-10-31T09:51:13;9.70;99.90
8043;DHT22;4064;48.132;11.366;2023-10-31T09:53:40;9.70;99.90
8043;DHT22;4064;48.132;11.366;2023-10-31T09:56:07;9.70;99.90
8043;DHT22;4064;48.132;11.366;2023-10-31T09:58:33;9.70;99.90
8043;DHT22;4064;48.132;11.366;2023-10-31T10:01:00;9.70;99.90
8043;DHT22;4064;48.132;11.366;2023-10-31T10:03:26;9.70;99.90
8043;DHT22;4064;48.132;11.366;2023-10-31T10:05:52;9.70;99.90
8043;DHT22;4064;48.132;11.366;2023-10-31T10:08:19;9.70;99.90
8043;DHT22;4064;48.132;11.366;2023-10-31T10:10:45;9.80;99.90
8043;DHT22;4064;48.132;11.366;2023-10-31T10:13:12;9.70;99.90
8043;DHT22;4064;48.132;11.366;2023-10-31T10:15:48;9.80;99.90
8043;DHT22;4064;48.132;11.366;2023-10-31T10:18:41;9.80;99.90
8043;DHT22;4064;48.132;11.366;2023-10-31T10:21:09;9.80;99.90
8043;DHT22;4064;48.132;11.366;2023-10-31T10:23:34;9.80;99.90
8043;DHT22;4064;48.132;11.366;2023-10-31T10:26:01;9.90;99.90
8043;DHT22;4064;48.132;11.366;2023-10-31T10:28:27;9.90;99.90
8043;DHT22;4064;48.132;11.366;2023-10-31T10:30:55;10.00;99.90
8043;DHT22;4064;48.132;11.366;2023-10-31T10:33:22;10.10;99.90
8043;DHT22;4064;48.132;11.366;2023-10-31T10:35:48;10.20;99.90
8043;DHT22;4064;48.132;11.366;2023-10-31T10:38:15;10.20;99.90
8043;DHT22;4064;48.132;11.366;2023-10-31T10:40:42;10.20;99.90
8043;DHT22;4064;48.132;11.366;2023-10-31T10:43:21;10.20;99.90
8043;DHT22;4064;48.132;11.366;2023-10-31T10:48:19;10.40;99.90
8043;DHT22;4064;48.132;11.366;2023-10-31T10:50:46;10.40;99.90
8043;DHT22;4064;48.132;11.366;2023-10-31T10:55:51;10.50;99.90
8043;DHT22;4064;48.132;11.366;2023-10-31T10:58:26;10.50;99.90
8043;DHT22;4064;48.132;11.366;2023-10-31T11:00:53;10.50;99.90
8043;DHT22;4064;48.132;11.366;2023-10-31T11:03:21;10.60;99.90
8043;DHT22;4064;48.132;11.366;2023-10-31T11:05:47;10.60;99.90
8043;DHT22;4064;48.132;11.366;2023-10-31T11:08:14;10.60;99.90
8043;DHT22;4064;48.132;11.366;2023-10-31T11:10:40;10.70;99.90
8043;DHT22;4064;48.132;11.366;2023-10-31T11:13:06;10.70;99.90
8043;DHT22;4064;48.132;11.366;2023-10-31T11:15:33;10.70;99.90
8043;DHT22;4064;48.132;11.366;2023-10-31T11:18:00;10.80;99.90
8043;DHT22;4064;48.132;11.366;2023-10-31T11:20:28;10.80;99.90
8043;DHT22;4064;48.132;11.366;2023-10-31T11:22:55;10.90;99.90
8043;DHT22;4064;48.132;11.366;2023-10-31T11:25:24;10.90;99.90
8043;DHT22;4064;48.132;11.366;2023-10-31T11:27:50;11.00;99.90
8043;DHT22;4064;48.132;11.366;2023-10-31T11:30:28;11.00;99.90
8043;DHT22;4064;48.132;11.366;2023-10-31T11:33:03;11.10;99.90
8043;DHT22;4064;48.132;11.366;2023-10-31T11:35:32;11.10;99.90
8043;DHT22;4064;48.132;11.366;2023-10-31T11:38:05;11.20;99.90
8043;DHT22;4064;48.132;11.366;2023-10-31T11:40:36;11.20;99.90
8043;DHT22;4064;48.132;11.366;2023-10-31T11:43:04;11.20;99.90
8043;DHT22;4064;48.132;11.366;2023-10-31T11:45:34;11.30;99.90
8043;DHT22;4064;48.132;11.366;2023-10-31T11:48:04;11.30;99.90
8043;DHT22;4064;48.132;11.366;2023-10-31T11:50:31;11.40;99.90
8043;DHT22;4064;48.132;11.366;2023-10-31T11:55:45;11.40;99.90
8043;DHT22;4064;48.132;11.366;2023-10-31T11:58:21;11.50;99.90
8043;DHT22;4064;48.132;11.366;2023-10-31T12:00:49;11.50;99.90
8043;DHT22;4064;48.132;11.366;2023-10-31T12:03:17;11.50;99.90
8043;DHT22;4064;48.132;11.366;2023-10-31T12:05:57;11.60;99.90
8043;DHT22;4064;48.132;11.366;2023-10-31T12:08:36;11.60;99.90
8043;DHT22;4064;48.132;11.366;2023-10-31T12:13:30;11.60;99.90
8043;DHT22;4064;48.132;11.366;2023-10-31T12:15:56;11.70;99.90
8043;DHT22;4064;48.132;11.366;2023-10-31T12:18:22;11.70;99.90
8043;DHT22;4064;48.132;11.366;2023-10-31T12:20:48;11.80;99.90
8043;DHT22;4064;48.132;11.366;2023-10-31T12:23:14;11.90;99.90
8043;DHT22;4064;48.132;11.366;2023-10-31T12:25:51;11.80;99.90
8043;DHT22;4064;48.132;11.366;2023-10-31T12:28:21;11.90;99.90
8043;DHT22;4064;48.132;11.366;2023-10-31T12:30:48;11.80;99.90
8043;DHT22;4064;48.132;11.366;2023-10-31T12:33:15;11.70;99.90
8043;DHT22;4064;48.132;11.366;2023-10-31T12:35:42;11.70;99.90
8043;DHT22;4064;48.132;11.366;2023-10-31T12:38:10;11.50;99.90
8043;DHT22;4064;48.132;11.366;2023-10-31T12:40:36;11.50;99.90
8043;DHT22;4064;48.132;11.366;2023-10-31T12:43:02;11.30;99.90
8043;DHT22;4064;48.132;11.366;2023-10-31T12:45:28;11.30;99.90
8043;DHT22;4064;48.132;11.366;2023-10-31T12:50:28;11.40;99.90
8043;DHT22;4064;48.132;11.366;2023-10-31T12:52:54;11.50;99.90
8043;DHT22;4064;48.132;11.366;2023-10-31T12:55:25;11.60;99.90
8043;DHT22;4064;48.132;11.366;2023-10-31T12:57:51;11.60;99.90
8043;DHT22;4064;48.132;11.366;2023-10-31T13:00:19;11.50;99.90
8043;DHT22;4064;48.132;11.366;2023-10-31T13:02:50;11.70;99.90
8043;DHT22;4064;48.132;11.366;2023-10-31T13:05:17;11.70;99.90
8043;DHT22;4064;48.132;11.366;2023-10-31T13:07:53;11.60;99.90
8043;DHT22;4064;48.132;11.366;2023-10-31T13:10:24;11.60;99.90
8043;DHT22;4064;48.132;11.366;2023-10-31T13:12:50;11.50;99.90
8043;DHT22;4064;48.132;11.366;2023-10-31T13:15:17;11.40;99.90
8043;DHT22;4064;48.132;11.366;2023-10-31T13:17:47;11.40;99.90
8043;DHT22;4064;48.132;11.366;2023-10-31T13:20:15;11.40;99.90
8043;DHT22;4064;48.132;11.366;2023-10-31T13:22:41;11.30;99.90
8043;DHT22;4064;48.132;11.366;2023-10-31T13:25:09;11.20;99.90
8043;DHT22;4064;48.132;11.366;2023-10-31T13:27:39;11.10;99.90
8043;DHT22;4064;48.132;11.366;2023-10-31T13:30:06;11.10;99.90
8043;DHT22;4064;48.132;11.366;2023-10-31T13:32:33;11.10;99.90
8043;DHT22;4064;48.132;11.366;2023-10-31T13:34:59;11.00;99.90
8043;DHT22;4064;48.132;11.366;2023-10-31T13:37:25;11.00;99.90
8043;DHT22;4064;48.132;11.366;2023-10-31T13:39:51;11.00;99.90
8043;DHT22;4064;48.132;11.366;2023-10-31T13:42:17;11.00;99.90
8043;DHT22;4064;48.132;11.366;2023-10-31T13:44:43;11.00;99.90
8043;DHT22;4064;48.132;11.366;2023-10-31T13:47:09;11.10;99.90
8043;DHT22;4064;48.132;11.366;2023-10-31T13:49:36;11.00;99.90
8043;DHT22;4064;48.132;11.366;2023-10-31T13:52:06;11.10;99.90
8043;DHT22;4064;48.132;11.366;2023-10-31T13:54:32;11.10;99.90
8043;DHT22;4064;48.132;11.366;2023-10-31T13:56:58;11.00;99.90
8043;DHT22;4064;48.132;11.366;2023-10-31T13:59:24;11.00;99.90
8043;DHT22;4064;48.132;11.366;2023-10-31T14:01:50;10.90;99.90
8043;DHT22;4064;48.132;11.366;2023-10-31T14:04:16;10.90;99.90
8043;DHT22;4064;48.132;11.366;2023-10-31T14:06:42;10.80;99.90
8043;DHT22;4064;48.132;11.366;2023-10-31T14:09:09;10.70;99.90
8043;DHT22;4064;48.132;11.366;2023-10-31T14:11:36;10.60;99.90
8043;DHT22;4064;48.132;11.366;2023-10-31T14:14:03;10.50;99.90
8043;DHT22;4064;48.132;11.366;2023-10-31T14:16:38;10.50;99.90
8043;DHT22;4064;48.132;11.366;2023-10-31T14:19:07;10.50;99.90
8043;DHT22;4064;48.132;11.366;2023-10-31T14:21:36;10.50;99.90
8043;DHT22;4064;48.132;11.366;2023-10-31T14:24:02;10.50;99.90
8043;DHT22;4064;48.132;11.366;2023-10-31T14:26:29;10.50;99.90
8043;DHT22;4064;48.132;11.366;2023-10-31T14:28:55;10.50;99.90
8043;DHT22;4064;48.132;11.366;2023-10-31T14:31:21;10.60;99.90
8043;DHT22;4064;48.132;11.366;2023-10-31T14:33:47;10.60;99.90
8043;DHT22;4064;48.132;11.366;2023-10-31T14:36:13;10.60;99.90
8043;DHT22;4064;48.132;11.366;2023-10-31T14:38:39;10.60;99.90
8043;DHT22;4064;48.132;11.366;2023-10-31T14:41:06;10.70;99.90
8043;DHT22;4064;48.132;11.366;2023-10-31T14:43:32;10.60;99.90
8043;DHT22;4064;48.132;11.366;2023-10-31T14:45:58;10.70;99.90
8043;DHT22;4064;48.132;11.366;2023-10-31T14:48:25;10.70;99.90
8043;DHT22;4064;48.132;11.366;2023-10-31T14:50:51;10.70;99.90
8043;DHT22;4064;48.132;11.366;2023-10-31T14:53:17;10.80;99.90
8043;DHT22;4064;48.132;11.366;2023-10-31T14:55:46;10.80;99.90
8043;DHT22;4064;48.132;11.366;2023-10-31T14:58:12;10.80;99.90
8043;DHT22;4064;48.132;11.366;2023-10-31T15:04:00;10.80;99.90
8043;DHT22;4064;48.132;11.366;2023-10-31T15:06:25;10.80;99.90
8043;DHT22;4064;48.132;11.366;2023-10-31T15:08:51;10.80;99.90
8043;DHT22;4064;48.132;11.366;2023-10-31T15:11:16;10.80;99.90
8043;DHT22;4064;48.132;11.366;2023-10-31T15:13:42;10.70;99.90
8043;DHT22;4064;48.132;11.366;2023-10-31T15:16:08;10.70;99.90
8043;DHT22;4064;48.132;11.366;2023-10-31T15:18:33;10.70;99.90
8043;DHT22;4064;48.132;11.366;2023-10-31T15:20:59;10.70;99.90
8043;DHT22;4064;48.132;11.366;2023-10-31T15:23:25;10.70;99.90
8043;DHT22;4064;48.132;11.366;2023-10-31T15:25:52;10.70;99.90
8043;DHT22;4064;48.132;11.366;2023-10-31T15:28:18;10.70;99.90
8043;DHT22;4064;48.132;11.366;2023-10-31T15:30:44;10.70;99.90
8043;DHT22;4064;48.132;11.366;2023-10-31T15:33:09;10.70;99.90
8043;DHT22;4064;48.132;11.366;2023-10-31T15:35:35;10.70;99.90
8043;DHT22;4064;48.132;11.366;2023-10-31T15:38:00;10.70;99.90
8043;DHT22;4064;48.132;11.366;2023-10-31T15:40:26;10.60;99.90
8043;DHT22;4064;48.132;11.366;2023-10-31T15:42:52;10.60;99.90
8043;DHT22;4064;48.132;11.366;2023-10-31T15:45:17;10.60;99.90
8043;DHT22;4064;48.132;11.366;2023-10-31T15:47:43;10.50;99.90
8043;DHT22;4064;48.132;11.366;2023-10-31T15:50:09;10.50;99.90
8043;DHT22;4064;48.132;11.366;2023-10-31T15:52:35;10.40;99.90
8043;DHT22;4064;48.132;11.366;2023-10-31T15:55:01;10.40;99.90
8043;DHT22;4064;48.132;11.366;2023-10-31T15:57:27;10.40;99.90
8043;DHT22;4064;48.132;11.366;2023-10-31T15:59:53;10.30;99.90
8043;DHT22;4064;48.132;11.366;2023-10-31T16:02:18;10.30;99.90
8043;DHT22;4064;48.132;11.366;2023-10-31T16:04:44;10.30;99.90
8043;DHT22;4064;48.132;11.366;2023-10-31T16:07:11;10.30;99.90
8043;DHT22;4064;48.132;11.366;2023-10-31T16:09:37;10.20;99.90